createdAt,value
2019-04-03T00:00:22.970Z,7.93
2019-04-03T00:02:53.834Z,7.90
2019-04-03T00:05:24.789Z,7.85
2019-04-03T00:07:55.663Z,7.84
2019-04-03T00:10:29.561Z,7.86
2019-04-03T00:13:00.581Z,7.90
2019-04-03T00:15:31.685Z,7.88
2019-04-03T00:18:02.693Z,7.92
2019-04-03T00:20:33.653Z,7.95
2019-04-03T00:23:07.865Z,7.96
2019-04-03T00:25:38.881Z,7.87
2019-04-03T00:28:22.979Z,7.83
2019-04-03T00:31:02.590Z,7.86
2019-04-03T00:33:34.367Z,7.88
2019-04-03T00:36:05.592Z,7.83
2019-04-03T00:38:37.370Z,7.83
2019-04-03T00:41:08.546Z,7.76
2019-04-03T00:43:41.026Z,7.73
2019-04-03T00:46:11.961Z,7.71
2019-04-03T00:48:43.774Z,7.68
2019-04-03T00:51:14.698Z,7.75
2019-04-03T00:53:45.593Z,7.70
2019-04-03T00:56:17.388Z,7.67
2019-04-03T00:58:48.261Z,7.71
2019-04-03T01:01:20.080Z,7.68
2019-04-03T01:03:50.967Z,7.63
2019-04-03T01:06:21.879Z,7.67
2019-04-03T01:08:52.780Z,7.62
2019-04-03T01:11:23.700Z,7.55
2019-04-03T01:13:54.590Z,7.64
2019-04-03T01:16:25.513Z,7.66
2019-04-03T01:18:56.405Z,7.61
2019-04-03T01:21:27.503Z,7.74
2019-04-03T01:23:58.397Z,7.69
2019-04-03T01:26:29.326Z,7.63
2019-04-03T01:29:00.210Z,7.66
2019-04-03T01:31:31.167Z,7.69
2019-04-03T01:34:02.115Z,7.57
2019-04-03T01:36:33.049Z,7.59
2019-04-03T01:39:05.455Z,7.61
2019-04-03T01:41:37.161Z,7.64
2019-04-03T01:44:08.056Z,7.62
2019-04-03T01:46:39.002Z,7.54
2019-04-03T01:49:09.899Z,7.58
2019-04-03T01:51:40.817Z,7.59
2019-04-03T01:54:11.704Z,7.64
2019-04-03T01:56:42.621Z,7.67
2019-04-03T01:59:13.574Z,7.67
2019-04-03T02:01:44.569Z,7.62
2019-04-03T02:04:15.453Z,7.69
2019-04-03T02:06:46.467Z,7.74
2019-04-03T02:09:17.357Z,7.66
2019-04-03T02:11:49.360Z,7.67
2019-04-03T02:14:21.600Z,7.60
2019-04-03T02:16:54.080Z,7.58
2019-04-03T02:19:26.556Z,7.57
2019-04-03T02:21:59.127Z,7.56
2019-04-03T02:24:31.864Z,7.56
2019-04-03T02:27:03.436Z,7.59
2019-04-03T02:29:34.805Z,7.61
2019-04-03T02:32:06.588Z,7.64
2019-04-03T02:34:37.544Z,7.67
2019-04-03T02:37:08.740Z,7.58
2019-04-03T02:39:40.105Z,7.58
2019-04-03T02:42:11.029Z,7.55
2019-04-03T02:44:41.925Z,7.53
2019-04-03T02:47:13.768Z,7.53
2019-04-03T02:49:45.105Z,7.52
2019-04-03T02:52:16.024Z,7.48
2019-04-03T02:54:47.629Z,7.56
2019-04-03T02:57:18.575Z,7.49
2019-04-03T02:59:49.851Z,7.44
2019-04-03T03:02:20.920Z,7.49
2019-04-03T03:04:54.631Z,7.54
2019-04-03T03:07:24.635Z,7.62
2019-04-03T03:09:55.524Z,7.58
2019-04-03T03:12:28.474Z,7.56
2019-04-03T03:15:01.521Z,7.47
2019-04-03T03:17:32.847Z,7.52
2019-04-03T03:20:07.728Z,7.50
2019-04-03T03:22:40.441Z,7.49
2019-04-03T03:25:12.798Z,7.52
2019-04-03T03:27:44.602Z,7.47
2019-04-03T03:30:41.118Z,7.46
2019-04-03T03:32:49.492Z,7.44
2019-04-03T03:35:29.383Z,7.48
2019-04-03T03:37:54.179Z,7.50
2019-04-03T03:40:25.576Z,7.46
2019-04-03T03:42:58.250Z,7.37
2019-04-03T03:45:30.965Z,7.39
2019-04-03T03:48:02.300Z,7.36
2019-04-03T03:50:36.876Z,7.38
2019-04-03T03:53:11.524Z,7.37
2019-04-03T03:55:42.041Z,7.35
2019-04-03T03:58:14.056Z,7.37
2019-04-03T04:00:51.286Z,7.38
2019-04-03T04:03:18.536Z,7.30
2019-04-03T04:05:53.865Z,7.26
2019-04-03T04:08:22.711Z,7.32
2019-04-03T04:10:58.198Z,7.29
2019-04-03T04:13:27.689Z,7.28
2019-04-03T04:16:02.177Z,7.21
2019-04-03T04:18:32.659Z,7.27
2019-04-03T04:21:03.912Z,7.22
2019-04-03T04:23:35.718Z,7.18
2019-04-03T04:26:06.890Z,7.19
2019-04-03T04:28:40.432Z,7.15
2019-04-03T04:31:12.350Z,7.21
2019-04-03T04:33:43.190Z,7.23
2019-04-03T04:36:14.131Z,7.20
2019-04-03T04:38:51.457Z,7.30
2019-04-03T04:41:22.464Z,7.35
2019-04-03T04:43:53.366Z,7.33
2019-04-03T04:46:24.249Z,7.26
2019-04-03T04:48:55.180Z,7.29
2019-04-03T04:51:26.871Z,7.27
2019-04-03T04:53:59.442Z,7.38
2019-04-03T04:56:30.368Z,7.50
2019-04-03T04:59:01.488Z,7.50
2019-04-03T05:01:32.349Z,7.55
2019-04-03T05:04:03.304Z,7.69
2019-04-03T05:06:34.284Z,7.92
2019-04-03T05:09:06.782Z,7.99
2019-04-03T05:11:39.074Z,8.07
2019-04-03T05:14:10.355Z,8.37
2019-04-03T05:16:41.252Z,8.55
2019-04-03T05:19:18.700Z,8.58
2019-04-03T05:21:45.768Z,8.64
2019-04-03T05:24:16.696Z,8.41
2019-04-03T05:26:47.595Z,8.50
2019-04-03T05:29:18.554Z,8.40
2019-04-03T05:31:49.602Z,8.35
2019-04-03T05:34:20.556Z,8.38
2019-04-03T05:36:51.585Z,8.59
2019-04-03T05:39:24.136Z,8.80
2019-04-03T05:41:58.598Z,9.12
2019-04-03T05:44:28.563Z,9.14
2019-04-03T05:47:00.013Z,9.28
2019-04-03T05:49:31.148Z,9.64
2019-04-03T05:52:04.109Z,9.83
2019-04-03T05:54:38.603Z,10.05
2019-04-03T05:57:08.387Z,10.14
2019-04-03T05:59:39.478Z,10.32
2019-04-03T06:02:16.105Z,10.45
2019-04-03T06:04:44.152Z,9.91
2019-04-03T06:07:17.464Z,10.19
2019-04-03T06:09:47.746Z,10.41
2019-04-03T06:12:19.318Z,10.24
2019-04-03T06:14:50.969Z,10.32
2019-04-03T06:17:22.312Z,10.60
2019-04-03T06:19:53.280Z,10.76
2019-04-03T06:22:24.987Z,10.88
2019-04-03T06:24:56.982Z,11.15
2019-04-03T06:27:28.200Z,11.26
2019-04-03T06:30:02.145Z,10.97
2019-04-03T06:32:33.211Z,11.38
2019-04-03T06:35:04.516Z,11.50
2019-04-03T06:37:35.867Z,11.56
2019-04-03T06:40:08.678Z,11.84
2019-04-03T06:42:42.416Z,11.81
2019-04-03T06:45:15.573Z,12.02
2019-04-03T06:47:46.302Z,12.12
2019-04-03T06:50:17.915Z,12.20
2019-04-03T06:52:52.609Z,11.88
2019-04-03T06:55:25.341Z,12.27
2019-04-03T06:57:56.543Z,12.36
2019-04-03T07:00:27.475Z,12.52
2019-04-03T07:03:03.336Z,12.60
2019-04-03T07:05:37.029Z,12.68
2019-04-03T07:08:09.729Z,12.70
2019-04-03T07:10:41.122Z,12.90
2019-04-03T07:13:15.068Z,12.97
2019-04-03T07:15:46.332Z,12.92
2019-04-03T07:18:17.376Z,12.96
2019-04-03T07:20:50.985Z,13.06
2019-04-03T07:23:22.057Z,13.05
2019-04-03T07:25:53.209Z,13.10
2019-04-03T07:28:24.232Z,12.87
2019-04-03T07:30:55.290Z,12.68
2019-04-03T07:33:28.462Z,12.59
2019-04-03T07:35:59.569Z,12.77
2019-04-03T07:38:30.550Z,12.80
2019-04-03T07:41:01.501Z,12.90
2019-04-03T07:43:32.564Z,13.06
2019-04-03T07:46:03.983Z,13.25
2019-04-03T07:48:35.815Z,12.92
2019-04-03T07:51:07.962Z,12.85
2019-04-03T07:53:39.900Z,12.87
2019-04-03T07:56:11.032Z,12.68
2019-04-03T07:58:42.226Z,12.64
2019-04-03T08:01:14.133Z,12.79
2019-04-03T08:03:45.601Z,13.02
2019-04-03T08:06:20.532Z,13.06
2019-04-03T08:09:08.217Z,13.32
2019-04-03T08:11:44.381Z,13.41
2019-04-03T08:14:19.047Z,13.48
2019-04-03T08:16:51.500Z,13.31
2019-04-03T08:19:23.505Z,13.39
2019-04-03T08:21:54.712Z,13.59
2019-04-03T08:24:27.544Z,13.67
2019-04-03T08:26:58.610Z,13.37
2019-04-03T08:29:31.052Z,13.79
2019-04-03T08:32:02.205Z,13.92
2019-04-03T08:34:33.146Z,14.02
2019-04-03T08:37:04.087Z,14.04
2019-04-03T08:39:36.577Z,14.21
2019-04-03T08:42:07.542Z,14.14
2019-04-03T08:44:38.755Z,14.00
2019-04-03T08:47:10.232Z,14.16
2019-04-03T08:49:41.171Z,14.01
2019-04-03T08:52:14.374Z,14.12
2019-04-03T08:54:44.743Z,14.00
2019-04-03T08:57:15.973Z,14.12
2019-04-03T08:59:47.310Z,14.12
2019-04-03T09:02:18.287Z,14.24
2019-04-03T09:04:49.367Z,14.41
2019-04-03T09:07:20.617Z,14.39
2019-04-03T09:09:52.370Z,14.49
2019-04-03T09:12:23.291Z,14.64
2019-04-03T09:14:56.401Z,14.66
2019-04-03T09:17:26.957Z,14.57
2019-04-03T09:19:57.842Z,14.62
2019-04-03T09:22:28.755Z,14.62
2019-04-03T09:25:01.018Z,14.77
2019-04-03T09:27:31.959Z,14.76
2019-04-03T09:30:05.171Z,14.69
2019-04-03T09:32:37.398Z,14.82
2019-04-03T09:35:09.313Z,14.74
2019-04-03T09:37:40.224Z,14.35
2019-04-03T09:40:12.127Z,14.21
2019-04-03T09:42:43.642Z,14.45
2019-04-03T09:45:15.128Z,14.42
2019-04-03T09:47:46.142Z,14.32
2019-04-03T09:50:17.393Z,14.29
2019-04-03T09:52:50.097Z,14.22
2019-04-03T09:55:22.719Z,14.19
2019-04-03T09:57:54.090Z,13.84
2019-04-03T10:00:25.603Z,13.85
2019-04-03T10:02:56.569Z,14.04
2019-04-03T10:05:28.996Z,14.11
2019-04-03T10:08:00.432Z,14.12
2019-04-03T10:10:32.491Z,14.28
2019-04-03T10:13:03.537Z,14.27
2019-04-03T10:15:34.674Z,14.32
2019-04-03T10:18:08.607Z,14.40
2019-04-03T10:20:38.757Z,14.40
2019-04-03T10:23:09.853Z,14.45
2019-04-03T10:25:41.689Z,14.45
2019-04-03T10:28:14.792Z,14.39
2019-04-03T10:30:45.270Z,14.48
2019-04-03T10:33:16.479Z,14.48
2019-04-03T10:35:47.809Z,14.61
2019-04-03T10:38:19.034Z,14.73
2019-04-03T10:40:51.002Z,14.72
2019-04-03T10:43:22.216Z,14.72
2019-04-03T10:45:53.335Z,14.75
2019-04-03T10:48:25.732Z,14.68
2019-04-03T10:50:57.020Z,14.70
2019-04-03T10:53:28.036Z,14.92
2019-04-03T10:56:00.665Z,14.97
2019-04-03T10:58:31.734Z,15.09
2019-04-03T11:01:02.731Z,15.17
2019-04-03T11:03:33.971Z,15.38
2019-04-03T11:06:05.088Z,15.34
2019-04-03T11:08:36.033Z,15.48
2019-04-03T11:11:08.127Z,15.47
2019-04-03T11:13:39.211Z,15.66
2019-04-03T11:16:10.422Z,15.80
2019-04-03T11:18:41.457Z,15.83
2019-04-03T11:21:13.453Z,15.74
2019-04-03T11:23:45.575Z,15.77
2019-04-03T11:26:19.598Z,15.78
2019-04-03T11:28:50.521Z,15.81
2019-04-03T11:31:27.054Z,15.92
2019-04-03T11:33:54.055Z,15.93
2019-04-03T11:36:28.089Z,15.87
2019-04-03T11:39:10.534Z,15.95
2019-04-03T11:41:30.258Z,16.11
2019-04-03T11:44:01.233Z,16.03
2019-04-03T11:46:32.173Z,16.08
2019-04-03T11:49:03.383Z,16.08
2019-04-03T11:51:34.567Z,16.19
2019-04-03T11:54:08.225Z,16.18
2019-04-03T11:56:39.180Z,16.26
2019-04-03T11:59:10.079Z,16.37
2019-04-03T12:01:41.085Z,16.46
2019-04-03T12:04:12.801Z,16.36
2019-04-03T12:06:44.426Z,16.38
2019-04-03T12:09:15.427Z,16.45
2019-04-03T12:11:47.303Z,16.41
2019-04-03T12:14:18.718Z,16.46
2019-04-03T12:16:49.789Z,16.55
2019-04-03T12:19:20.704Z,16.69
2019-04-03T12:21:52.239Z,16.60
2019-04-03T12:24:23.159Z,16.53
2019-04-03T12:26:55.457Z,16.60
2019-04-03T12:29:26.951Z,16.60
2019-04-03T12:31:58.041Z,16.60
2019-04-03T12:34:29.323Z,16.62
2019-04-03T12:37:00.334Z,16.54
2019-04-03T12:39:31.267Z,16.68
2019-04-03T12:42:03.238Z,16.83
2019-04-03T12:44:34.534Z,16.85
2019-04-03T12:47:11.990Z,16.77
2019-04-03T12:49:38.171Z,16.82
2019-04-03T12:52:09.104Z,16.82
2019-04-03T12:54:40.116Z,16.82
2019-04-03T12:57:12.086Z,16.93
2019-04-03T12:59:43.027Z,16.95
2019-04-03T13:02:14.023Z,16.90
2019-04-03T13:04:44.935Z,16.90
2019-04-03T13:07:16.220Z,17.03
2019-04-03T13:09:48.754Z,17.11
2019-04-03T13:12:23.092Z,17.18
2019-04-03T13:14:53.093Z,17.11
2019-04-03T13:17:24.044Z,17.05
2019-04-03T13:19:55.199Z,17.02
2019-04-03T13:22:26.615Z,17.04
2019-04-03T13:24:57.551Z,17.09
2019-04-03T13:27:31.728Z,17.14
2019-04-03T13:30:02.941Z,17.09
2019-04-03T13:32:33.867Z,17.09
2019-04-03T13:35:07.070Z,17.04
2019-04-03T13:37:38.006Z,17.12
2019-04-03T13:40:09.953Z,17.16
2019-04-03T13:42:41.974Z,17.17
2019-04-03T13:45:13.632Z,17.28
2019-04-03T13:47:46.579Z,17.17
2019-04-03T13:50:17.342Z,17.26
2019-04-03T13:52:50.015Z,17.22
2019-04-03T13:55:20.991Z,17.09
2019-04-03T13:57:54.746Z,17.16
2019-04-03T14:00:25.713Z,17.09
2019-04-03T14:02:58.195Z,17.06
2019-04-03T14:05:32.337Z,16.98
2019-04-03T14:08:01.978Z,17.08
2019-04-03T14:10:32.959Z,17.04
2019-04-03T14:13:06.332Z,17.05
2019-04-03T14:15:37.237Z,17.06
2019-04-03T14:18:09.012Z,17.11
2019-04-03T14:20:40.369Z,17.06
2019-04-03T14:23:12.132Z,17.09
2019-04-03T14:25:43.140Z,17.04
2019-04-03T14:28:15.094Z,16.96
2019-04-03T14:30:46.005Z,17.04
2019-04-03T14:33:18.988Z,17.00
2019-04-03T14:35:53.300Z,16.92
2019-04-03T14:38:22.365Z,16.96
2019-04-03T14:40:53.269Z,16.97
2019-04-03T14:43:24.245Z,16.98
2019-04-03T14:45:55.141Z,17.02
2019-04-03T14:48:27.331Z,17.07
2019-04-03T14:50:58.726Z,17.05
2019-04-03T14:53:29.991Z,16.87
2019-04-03T14:56:01.532Z,16.81
2019-04-03T14:58:35.422Z,16.76
2019-04-03T15:01:06.567Z,16.76
2019-04-03T15:03:38.420Z,16.84
2019-04-03T15:06:09.316Z,16.82
2019-04-03T15:08:40.615Z,16.84
2019-04-03T15:11:11.606Z,16.86
2019-04-03T15:13:43.734Z,16.82
2019-04-03T15:16:14.637Z,16.74
2019-04-03T15:18:45.573Z,16.64
2019-04-03T15:21:16.599Z,16.63
2019-04-03T15:23:47.591Z,16.60
2019-04-03T15:26:19.378Z,16.62
2019-04-03T15:28:52.474Z,16.49
2019-04-03T15:31:24.522Z,16.29
2019-04-03T15:33:56.268Z,16.13
2019-04-03T15:36:27.682Z,16.11
2019-04-03T15:38:59.775Z,16.00
2019-04-03T15:41:33.330Z,16.01
2019-04-03T15:44:05.116Z,15.97
2019-04-03T15:46:36.099Z,15.86
2019-04-03T15:49:07.406Z,15.88
2019-04-03T15:51:39.807Z,15.78
2019-04-03T15:54:11.288Z,15.63
2019-04-03T15:56:44.848Z,15.62
2019-04-03T15:59:16.354Z,15.57
2019-04-03T16:01:47.252Z,15.53
2019-04-03T16:04:18.430Z,15.53
2019-04-03T16:06:49.529Z,15.51
2019-04-03T16:09:20.508Z,15.50
2019-04-03T16:11:51.969Z,15.44
2019-04-03T16:14:24.534Z,15.45
2019-04-03T16:16:55.988Z,15.45
2019-04-03T16:19:27.118Z,15.30
2019-04-03T16:21:58.266Z,15.17
2019-04-03T16:24:29.290Z,15.13
2019-04-03T16:27:00.646Z,15.03
2019-04-03T16:29:32.449Z,15.05
2019-04-03T16:32:03.563Z,14.95
2019-04-03T16:34:34.674Z,14.88
2019-04-03T16:37:05.857Z,14.84
2019-04-03T16:39:36.863Z,14.80
2019-04-03T16:42:07.730Z,14.73
2019-04-03T16:44:39.207Z,14.71
2019-04-03T16:47:10.666Z,14.68
2019-04-03T16:49:43.211Z,14.67
2019-04-03T16:52:14.272Z,14.67
2019-04-03T16:54:45.481Z,14.56
2019-04-03T16:57:16.470Z,14.45
2019-04-03T16:59:50.034Z,14.38
2019-04-03T17:02:23.863Z,14.31
2019-04-03T17:04:53.566Z,14.29
2019-04-03T17:07:24.474Z,14.24
2019-04-03T17:09:55.424Z,14.23
2019-04-03T17:12:26.335Z,14.16
2019-04-03T17:14:58.272Z,14.17
2019-04-03T17:17:29.259Z,14.14
2019-04-03T17:20:00.205Z,14.07
2019-04-03T17:22:31.115Z,14.07
2019-04-03T17:25:02.392Z,14.03
2019-04-03T17:27:33.540Z,14.01
2019-04-03T17:30:10.069Z,13.97
2019-04-03T17:32:41.044Z,13.95
2019-04-03T17:35:14.105Z,13.86
2019-04-03T17:37:44.758Z,13.84
2019-04-03T17:40:16.737Z,13.82
2019-04-03T17:42:47.671Z,13.76
2019-04-03T17:45:19.540Z,13.71
2019-04-03T17:47:53.668Z,13.68
2019-04-03T17:50:23.147Z,13.60
2019-04-03T17:52:54.073Z,13.67
2019-04-03T17:55:25.029Z,13.59
2019-04-03T17:57:56.134Z,13.54
2019-04-03T18:00:29.702Z,13.54
2019-04-03T18:03:00.742Z,13.58
2019-04-03T18:05:33.246Z,13.53
2019-04-03T18:08:04.587Z,13.53
2019-04-03T18:10:37.563Z,13.44
2019-04-03T18:13:08.583Z,13.39
2019-04-03T18:15:40.588Z,13.34
2019-04-03T18:18:13.229Z,13.30
2019-04-03T18:20:44.627Z,13.23
2019-04-03T18:23:16.441Z,13.13
2019-04-03T18:25:47.509Z,13.02
2019-04-03T18:28:20.867Z,12.92
2019-04-03T18:30:51.958Z,12.91
2019-04-03T18:33:22.866Z,12.83
2019-04-03T18:35:56.518Z,12.76
2019-04-03T18:38:26.412Z,12.69
2019-04-03T18:40:57.349Z,12.63
2019-04-03T18:43:28.274Z,12.61
2019-04-03T18:46:00.308Z,12.56
2019-04-03T18:48:31.198Z,12.48
2019-04-03T18:51:02.179Z,12.48
2019-04-03T18:53:33.098Z,12.38
2019-04-03T18:56:04.143Z,12.34
2019-04-03T18:58:35.118Z,12.21
2019-04-03T19:01:09.860Z,12.11
2019-04-03T19:03:40.828Z,12.06
2019-04-03T19:06:13.451Z,11.96
2019-04-03T19:08:44.370Z,11.98
2019-04-03T19:11:15.392Z,11.93
2019-04-03T19:13:49.170Z,11.91
2019-04-03T19:16:29.341Z,11.84
2019-04-03T19:18:52.573Z,11.80
2019-04-03T19:21:27.058Z,11.71
2019-04-03T19:23:56.464Z,11.74
2019-04-03T19:26:27.446Z,11.67
2019-04-03T19:28:58.386Z,11.62
2019-04-03T19:31:34.828Z,11.61
2019-04-03T19:34:08.998Z,11.54
2019-04-03T19:36:42.949Z,11.54
2019-04-03T19:39:12.675Z,11.49
2019-04-03T19:41:43.606Z,11.41
2019-04-03T19:44:16.148Z,11.41
2019-04-03T19:46:47.976Z,11.34
2019-04-03T19:49:18.893Z,11.23
2019-04-03T19:51:49.854Z,11.19
2019-04-03T19:54:32.744Z,11.19
2019-04-03T19:57:09.025Z,11.10
2019-04-03T19:59:39.968Z,11.01
2019-04-03T20:02:13.329Z,10.98
2019-04-03T20:04:45.826Z,10.85
2019-04-03T20:07:17.673Z,10.86
2019-04-03T20:09:48.579Z,10.85
2019-04-03T20:12:19.534Z,10.77
2019-04-03T20:14:57.877Z,10.72
2019-04-03T20:17:24.536Z,10.70
2019-04-03T20:19:57.894Z,10.63
2019-04-03T20:22:28.519Z,10.63
2019-04-03T20:25:14.423Z,10.53
2019-04-03T20:27:51.459Z,10.57
2019-04-03T20:30:21.227Z,10.56
2019-04-03T20:32:53.913Z,10.45
2019-04-03T20:35:24.833Z,10.43
2019-04-03T20:37:57.021Z,10.42
2019-04-03T20:40:31.731Z,10.38
2019-04-03T20:43:01.204Z,10.32
2019-04-03T20:45:32.117Z,10.31
2019-04-03T20:48:03.934Z,10.28
2019-04-03T20:50:37.726Z,10.23
2019-04-03T20:53:07.515Z,10.17
2019-04-03T20:55:38.404Z,10.21
2019-04-03T20:58:09.353Z,10.12
2019-04-03T21:00:40.265Z,10.16
2019-04-03T21:03:13.067Z,10.10
2019-04-03T21:05:44.473Z,10.09
2019-04-03T21:08:26.682Z,10.05
2019-04-03T21:10:58.149Z,10.04
2019-04-03T21:13:29.193Z,9.95
2019-04-03T21:16:00.113Z,9.96
2019-04-03T21:18:32.703Z,9.91
2019-04-03T21:21:03.602Z,9.88
2019-04-03T21:23:34.558Z,9.83
2019-04-03T21:26:07.316Z,9.79
2019-04-03T21:28:40.859Z,9.78
2019-04-03T21:31:10.866Z,9.76
2019-04-03T21:33:45.129Z,9.69
2019-04-03T21:36:15.327Z,9.72
2019-04-03T21:38:46.249Z,9.66
2019-04-03T21:41:20.372Z,9.67
2019-04-03T21:43:49.766Z,9.67
2019-04-03T21:46:20.725Z,9.69
2019-04-03T21:48:53.988Z,9.68
2019-04-03T21:51:24.888Z,9.67
2019-04-03T21:53:56.565Z,9.63
2019-04-03T21:56:38.528Z,9.57
2019-04-03T21:59:39.877Z,9.61
2019-04-03T22:02:10.280Z,9.61
2019-04-03T22:04:42.952Z,9.56
2019-04-03T22:07:14.045Z,9.50
2019-04-03T22:09:45.157Z,9.55
2019-04-03T22:12:16.089Z,9.52
2019-04-03T22:14:47.051Z,9.46
2019-04-03T22:17:17.963Z,9.49
2019-04-03T22:19:49.824Z,9.49
2019-04-03T22:22:20.721Z,9.44
2019-04-03T22:24:52.519Z,9.41
2019-04-03T22:27:23.485Z,9.34
2019-04-03T22:29:54.420Z,9.35
2019-04-03T22:32:25.406Z,9.30
2019-04-03T22:34:57.134Z,9.25
2019-04-03T22:37:28.030Z,9.27
2019-04-03T22:39:58.959Z,9.31
2019-04-03T22:42:29.860Z,9.23
2019-04-03T22:45:00.786Z,9.20
2019-04-03T22:47:31.689Z,9.21
2019-04-03T22:50:05.579Z,9.19
2019-04-03T22:52:36.059Z,9.16
2019-04-03T22:55:07.392Z,9.15
2019-04-03T22:57:38.292Z,9.17
2019-04-03T23:00:09.231Z,9.19
2019-04-03T23:02:40.148Z,9.17
2019-04-03T23:05:12.777Z,9.11
2019-04-03T23:07:43.680Z,9.12
2019-04-03T23:10:14.608Z,9.03
2019-04-03T23:12:45.495Z,9.07
2019-04-03T23:15:16.426Z,8.98
2019-04-03T23:17:47.257Z,8.99
2019-04-03T23:20:20.155Z,8.97
2019-04-03T23:22:51.739Z,9.02
2019-04-03T23:25:22.593Z,8.92
2019-04-03T23:27:53.491Z,8.89
2019-04-03T23:30:24.505Z,8.92
2019-04-03T23:32:55.410Z,8.91
2019-04-03T23:35:27.155Z,8.90
2019-04-03T23:37:58.060Z,8.89
2019-04-03T23:40:28.987Z,8.88
2019-04-03T23:42:59.813Z,8.92
2019-04-03T23:45:31.399Z,8.91
2019-04-03T23:48:02.225Z,8.84
2019-04-03T23:50:33.193Z,8.81
2019-04-03T23:53:04.072Z,8.82
2019-04-03T23:55:36.234Z,8.85
2019-04-03T23:58:09.034Z,8.87
